This is the latest recevied weather packets stored in our database for station/object OK0BPL-5. If no packets are shown the sender has not sent any weather packets the latest 1 day(s).
| Time | Temp. | Humidity | Pressure | Rain* | Wind** | Luminosity | Snow |
|---|---|---|---|---|---|---|---|
| 1788524797 | 25° C | 50% | 1009.3 hPa | 0 mm | 6.71 m/s, 222° | 163 W/m² | - |
| 1788524797 | 25° C | 50% | 1009.3 hPa | 0 mm | 6.71 m/s, 222° | 163 W/m² | - |
| 1788523898 | 26.11° C | 49% | 1009.4 hPa | 0 mm | 2.68 m/s, 270° | 246 W/m² | - |
| 1788523897 | 26.11° C | 49% | 1009.4 hPa | 0 mm | 2.68 m/s, 270° | 246 W/m² | - |
| 1788523897 | 26.11° C | 49% | 1009.4 hPa | 0 mm | 2.68 m/s, 270° | 246 W/m² | - |
| 1788522998 | 23.89° C | 54% | 1010.1 hPa | 0 mm | 3.58 m/s, 222° | 204 W/m² | - |
| 1788522997 | 23.89° C | 54% | 1010.1 hPa | 0 mm | 3.58 m/s, 222° | 204 W/m² | - |
| 1788522997 | 23.89° C | 54% | 1010.1 hPa | 0 mm | 3.58 m/s, 222° | 204 W/m² | - |
| 1788522098 | 23.89° C | 56% | 1010.1 hPa | 0 mm | 3.13 m/s, 222° | 106 W/m² | - |
| 1788522097 | 23.89° C | 56% | 1010.1 hPa | 0 mm | 3.13 m/s, 222° | 106 W/m² | - |
| 1788522097 | 23.89° C | 56% | 1010.1 hPa | 0 mm | 3.13 m/s, 222° | 106 W/m² | - |
| 1788521197 | 23.89° C | 58% | 1010.5 hPa | 0 mm | 4.02 m/s, 180° | 90 W/m² | - |
| 1788521197 | 23.89° C | 58% | 1010.5 hPa | 0 mm | 4.02 m/s, 180° | 90 W/m² | - |
| 1788521197 | 23.89° C | 58% | 1010.5 hPa | 0 mm | 4.02 m/s, 180° | 90 W/m² | - |
| 1788520299 | 23.33° C | 58% | 1010.8 hPa | 0 mm | 2.24 m/s, 222° | 115 W/m² | - |
| 1788520297 | - | - | - | - | 2.24 m/s, 222° | - | - |
| 1788519397 | 22.78° C | 61% | 1011 hPa | 0 mm | 3.58 m/s, 222° | 103 W/m² | - |
| 1788519397 | 22.78° C | 61% | 1011 hPa | 0 mm | 3.58 m/s, 222° | 103 W/m² | - |
| 1788518498 | 22.78° C | 62% | 1011.2 hPa | 0 mm | 3.58 m/s, 222° | 109 W/m² | - |
| 1788518497 | 22.78° C | 62% | 1011.2 hPa | 0 mm | 3.58 m/s, 222° | 109 W/m² | - |
| 1788518497 | 22.78° C | 62% | 1011.2 hPa | 0 mm | 3.58 m/s, 222° | 109 W/m² | - |
| 1788517598 | 22.22° C | 64% | 1011.5 hPa | 0 mm | 4.47 m/s, 180° | 119 W/m² | - |
| 1788517597 | 22.22° C | 64% | 1011.5 hPa | 0 mm | 4.47 m/s, 180° | 119 W/m² | - |
| 1788517597 | 22.22° C | 64% | 1011.5 hPa | 0 mm | 4.47 m/s, 180° | 119 W/m² | - |
| 1788516698 | 21.67° C | 66% | 1012.1 hPa | 0 mm | 3.13 m/s, 222° | 91 W/m² | - |
* Rain latest hour (hover to see other rain measurements)
** Current wind speed in m/s (hover to see current wind gust speed)